createdAt,value
2015-12-25T12:40:12.305Z,99924
2015-12-25T12:40:23.789Z,99918
2015-12-25T12:40:35.558Z,99918
2015-12-25T12:40:47.183Z,99919
2015-12-25T12:40:59.198Z,99907
2015-12-25T12:41:11.652Z,99916
2015-12-25T12:41:24.214Z,99919
2015-12-25T12:41:36.420Z,99907
2015-12-25T12:41:48.420Z,99919
2015-12-25T12:41:59.998Z,99913
2015-12-25T12:42:11.483Z,99907
2015-12-25T12:42:23.530Z,99907
2015-12-25T12:42:38.985Z,99916
2015-12-25T12:42:50.860Z,99910
2015-12-25T12:43:03.157Z,99919
2015-12-25T12:43:18.782Z,99907
2015-12-25T12:43:30.285Z,99910
2015-12-25T12:43:42.191Z,99916
2015-12-25T12:43:53.753Z,99913
2015-12-25T12:44:05.253Z,99913
2015-12-25T12:44:17.800Z,99916
2015-12-25T12:44:29.803Z,99910
2015-12-25T12:44:42.459Z,99922
2015-12-25T12:44:54.053Z,99907
2015-12-25T12:45:05.959Z,99907
2015-12-25T12:45:17.459Z,99913
2015-12-25T12:45:29.430Z,99902
2015-12-25T12:45:42.711Z,99902
2015-12-25T12:45:59.430Z,99896
2015-12-25T12:46:11.821Z,99902
2015-12-25T12:46:23.618Z,99907
2015-12-25T12:46:35.183Z,99899
2015-12-25T12:46:46.714Z,99902
2015-12-25T12:46:58.605Z,99902
2015-12-25T12:47:10.558Z,99905
2015-12-25T12:47:23.136Z,99902
2015-12-25T12:47:35.216Z,99905
2015-12-25T12:47:46.795Z,99896
2015-12-25T12:47:58.404Z,99907
2015-12-25T12:48:10.326Z,99899
2015-12-25T12:48:21.841Z,99899
2015-12-25T12:48:34.033Z,99899
2015-12-25T12:48:45.705Z,99907
2015-12-25T12:48:57.470Z,99905
2015-12-25T12:49:09.017Z,99896
2015-12-25T12:49:20.486Z,99896
2015-12-25T12:49:31.988Z,99899
2015-12-25T12:49:44.379Z,99902
2015-12-25T12:50:00.691Z,99902
2015-12-25T12:50:13.176Z,99902
2015-12-25T12:50:24.644Z,99910
2015-12-25T12:50:36.179Z,99896
2015-12-25T12:50:48.069Z,99891
2015-12-25T12:51:01.522Z,99896
2015-12-25T12:51:13.257Z,99902
2015-12-25T12:51:25.069Z,99896
2015-12-25T12:51:36.994Z,99899
2015-12-25T12:51:49.869Z,99902
2015-12-25T12:52:02.697Z,99891
2015-12-25T12:52:15.822Z,99891
2015-12-25T12:52:27.885Z,99899
2015-12-25T12:52:39.715Z,99896
2015-12-25T12:52:51.230Z,99899
2015-12-25T12:53:02.746Z,99888
2015-12-25T12:53:14.527Z,99896
2015-12-25T12:53:26.824Z,99902
2015-12-25T12:53:38.982Z,99896
2015-12-25T12:53:50.514Z,99899
2015-12-25T12:54:02.998Z,99893
2015-12-25T12:54:14.576Z,99902
2015-12-25T12:54:26.623Z,99902
2015-12-25T12:54:38.595Z,99899
2015-12-25T12:54:50.064Z,99913
2015-12-25T12:55:05.876Z,99893
2015-12-25T12:55:19.064Z,99902
2015-12-25T12:55:30.845Z,99908
2015-12-25T12:55:42.411Z,99910
2015-12-25T12:55:53.958Z,99893
2015-12-25T12:56:06.114Z,99902
2015-12-25T12:56:17.599Z,99893
2015-12-25T12:56:30.021Z,99908
2015-12-25T12:56:42.054Z,99905
2015-12-25T12:56:54.398Z,99902
2015-12-25T12:57:05.866Z,99899
2015-12-25T12:57:17.413Z,99910
2015-12-25T12:57:28.960Z,99902
2015-12-25T12:57:41.604Z,99882
2015-12-25T12:57:53.229Z,99899
2015-12-25T12:58:04.760Z,99905
2015-12-25T12:58:17.510Z,99896
2015-12-25T12:58:29.026Z,99899
2015-12-25T12:58:40.575Z,99899
2015-12-25T12:58:52.121Z,99896
2015-12-25T12:59:04.668Z,99893
2015-12-25T12:59:17.121Z,99902
2015-12-25T12:59:29.403Z,99896
2015-12-25T12:59:41.968Z,99893
2015-12-25T12:59:54.609Z,99891
2015-12-25T13:00:06.124Z,99899
2015-12-25T13:00:17.828Z,99893
2015-12-25T13:00:29.421Z,99896
2015-12-25T13:00:41.721Z,99896
2015-12-25T13:00:54.987Z,99891
2015-12-25T13:01:06.596Z,99902
2015-12-25T13:01:18.159Z,99896
2015-12-25T13:01:29.737Z,99905
2015-12-25T13:01:41.443Z,99896
2015-12-25T13:01:53.755Z,99899
2015-12-25T13:02:05.318Z,99896
2015-12-25T13:02:17.615Z,99905
2015-12-25T13:02:29.005Z,99893
2015-12-25T13:02:40.632Z,99891
2015-12-25T13:02:52.586Z,99896
2015-12-25T13:03:04.117Z,99899
2015-12-25T13:03:16.132Z,99893
2015-12-25T13:03:27.679Z,99899
2015-12-25T13:03:39.292Z,99882
2015-12-25T13:03:54.917Z,99885
2015-12-25T13:04:06.385Z,99899
2015-12-25T13:04:18.182Z,99902
2015-12-25T13:04:29.698Z,99902
2015-12-25T13:04:41.278Z,99891
2015-12-25T13:04:52.966Z,99891
2015-12-25T13:05:04.575Z,99899
2015-12-25T13:05:17.622Z,99888
2015-12-25T13:05:29.169Z,99899
2015-12-25T13:05:40.844Z,99896
2015-12-25T13:05:52.687Z,99899
2015-12-25T13:06:04.203Z,99888
2015-12-25T13:06:15.640Z,99888
2015-12-25T13:06:27.906Z,99893
2015-12-25T13:06:39.925Z,99896
2015-12-25T13:06:52.628Z,99888
2015-12-25T13:07:04.503Z,99896
2015-12-25T13:07:16.034Z,99893
2015-12-25T13:07:28.425Z,99893
2015-12-25T13:07:40.020Z,99896
2015-12-25T13:07:51.942Z,99888
2015-12-25T13:08:05.536Z,99899
2015-12-25T13:08:18.192Z,99879
2015-12-25T13:08:30.302Z,99893
2015-12-25T13:08:41.837Z,99896
2015-12-25T13:08:55.259Z,99899
2015-12-25T13:09:08.274Z,99885
2015-12-25T13:09:19.868Z,99896
2015-12-25T13:09:31.462Z,99891
2015-12-25T13:09:42.980Z,99893
2015-12-25T13:09:55.011Z,99891
2015-12-25T13:10:07.480Z,99899
2015-12-25T13:10:19.995Z,99888
2015-12-25T13:10:32.745Z,99882
2015-12-25T13:10:44.248Z,99891
2015-12-25T13:10:55.654Z,99899
2015-12-25T13:11:07.123Z,99899
2015-12-25T13:11:19.373Z,99888
2015-12-25T13:11:30.920Z,99891
2015-12-25T13:11:42.422Z,99888
2015-12-25T13:11:54.594Z,99888
2015-12-25T13:12:06.719Z,99893
2015-12-25T13:12:18.641Z,99899
2015-12-25T13:12:30.313Z,99885
2015-12-25T13:12:41.816Z,99885
2015-12-25T13:12:54.206Z,99891
2015-12-25T13:13:06.191Z,99882
2015-12-25T13:13:18.191Z,99891
2015-12-25T13:13:30.144Z,99891
2015-12-25T13:13:41.756Z,99888
2015-12-25T13:13:53.553Z,99891
2015-12-25T13:14:05.616Z,99891
2015-12-25T13:14:17.444Z,99896
2015-12-25T13:14:28.959Z,99882
2015-12-25T13:14:40.555Z,99885
2015-12-25T13:14:52.024Z,99893
2015-12-25T13:15:03.883Z,99893
2015-12-25T13:15:15.946Z,99888
2015-12-25T13:15:28.383Z,99888
2015-12-25T13:15:39.917Z,99882
2015-12-25T13:15:51.636Z,99882
2015-12-25T13:16:03.230Z,99885
2015-12-25T13:16:15.355Z,99893
2015-12-25T13:16:26.933Z,99882
2015-12-25T13:16:38.608Z,99888
2015-12-25T13:16:50.452Z,99882
2015-12-25T13:17:02.358Z,99885
2015-12-25T13:17:15.124Z,99877
2015-12-25T13:17:27.217Z,99874
2015-12-25T13:17:38.752Z,99879
2015-12-25T13:17:50.861Z,99882
2015-12-25T13:18:02.439Z,99882
2015-12-25T13:18:14.002Z,99865
2015-12-25T13:18:25.548Z,99882
2015-12-25T13:18:37.048Z,99877
2015-12-25T13:18:48.708Z,99885
2015-12-25T13:19:00.176Z,99888
2015-12-25T13:19:11.630Z,99874
2015-12-25T13:19:27.270Z,99876
2015-12-25T13:19:39.632Z,99874
2015-12-25T13:19:51.491Z,99888
2015-12-25T13:20:03.132Z,99879
2015-12-25T13:20:15.147Z,99882
2015-12-25T13:20:27.585Z,99882
2015-12-25T13:20:43.275Z,99879
2015-12-25T13:20:54.916Z,99882
2015-12-25T13:21:06.822Z,99888
2015-12-25T13:21:18.385Z,99882
2015-12-25T13:21:29.994Z,99885
2015-12-25T13:21:43.121Z,99877
2015-12-25T13:21:54.746Z,99879
2015-12-25T13:22:06.590Z,99882
2015-12-25T13:22:17.949Z,99874
2015-12-25T13:22:29.512Z,99882
2015-12-25T13:22:41.155Z,99879
2015-12-25T13:22:52.671Z,99876
2015-12-25T13:23:05.686Z,99888
2015-12-25T13:23:17.483Z,99888
2015-12-25T13:23:28.968Z,99885
2015-12-25T13:23:40.595Z,99882
2015-12-25T13:23:52.110Z,99876
2015-12-25T13:24:03.938Z,99885
2015-12-25T13:24:15.845Z,99876
2015-12-25T13:24:27.454Z,99874
2015-12-25T13:24:40.427Z,99876
2015-12-25T13:24:51.911Z,99885
2015-12-25T13:25:03.411Z,99876
2015-12-25T13:25:15.458Z,99874
2015-12-25T13:25:27.630Z,99882
2015-12-25T13:25:39.208Z,99879
2015-12-25T13:25:51.569Z,99876
2015-12-25T13:26:03.132Z,99862
2015-12-25T13:26:14.679Z,99874
2015-12-25T13:26:26.663Z,99868
2015-12-25T13:26:38.788Z,99879
2015-12-25T13:26:50.276Z,99871
2015-12-25T13:27:02.322Z,99874
2015-12-25T13:27:13.932Z,99871
2015-12-25T13:27:25.401Z,99876
2015-12-25T13:27:37.041Z,99879
2015-12-25T13:27:49.153Z,99874
2015-12-25T13:28:01.059Z,99876
2015-12-25T13:28:12.653Z,99868
2015-12-25T13:28:24.137Z,99865
2015-12-25T13:28:36.199Z,99876
2015-12-25T13:28:49.124Z,99871
2015-12-25T13:29:01.187Z,99862
2015-12-25T13:29:13.281Z,99876
2015-12-25T13:29:24.874Z,99874
2015-12-25T13:29:37.093Z,99868
2015-12-25T13:29:52.799Z,99868
2015-12-25T13:30:05.268Z,99879
2015-12-25T13:30:17.284Z,99860
2015-12-25T13:30:28.893Z,99879
2015-12-25T13:30:40.330Z,99874
2015-12-25T13:30:52.318Z,99885
2015-12-25T13:31:04.693Z,99868
2015-12-25T13:31:16.208Z,99876
2015-12-25T13:31:29.787Z,99865
2015-12-25T13:31:41.880Z,99879
2015-12-25T13:31:53.742Z,99871
2015-12-25T13:32:05.351Z,99871
2015-12-25T13:32:17.351Z,99862
2015-12-25T13:32:28.960Z,99882
2015-12-25T13:32:41.070Z,99876
2015-12-25T13:32:53.448Z,99868
2015-12-25T13:33:09.932Z,99877
2015-12-25T13:33:22.354Z,99871
2015-12-25T13:33:34.620Z,99871
2015-12-25T13:33:46.341Z,99874
2015-12-25T13:33:59.295Z,99871
2015-12-25T13:34:10.857Z,99874
2015-12-25T13:34:22.810Z,99860
2015-12-25T13:34:34.857Z,99874
2015-12-25T13:34:46.500Z,99871
2015-12-25T13:34:58.797Z,99885
2015-12-25T13:35:10.640Z,99868
2015-12-25T13:35:23.328Z,99874
2015-12-25T13:35:36.062Z,99879
2015-12-25T13:35:48.082Z,99882
2015-12-25T13:35:59.722Z,99874
2015-12-25T15:04:37.204Z,99927
2015-12-25T15:04:48.829Z,99919
2015-12-25T15:05:00.754Z,99922
2015-12-25T15:05:12.879Z,99919
2015-12-25T15:05:27.411Z,99933
2015-12-25T15:05:39.036Z,99916
2015-12-25T15:05:51.239Z,99930
2015-12-25T15:06:03.444Z,99925
2015-12-25T15:06:15.756Z,99930
2015-12-25T15:06:27.303Z,99927
2015-12-25T15:06:39.600Z,99927
2015-12-25T15:06:51.163Z,99922
2015-12-25T15:07:03.041Z,99930
2015-12-25T15:07:15.212Z,99939
2015-12-25T15:07:27.572Z,99910
2015-12-25T15:07:39.416Z,99922
2015-12-25T15:07:51.212Z,99919
2015-12-25T15:08:02.996Z,99919
2015-12-25T15:08:14.496Z,99925
2015-12-25T15:08:26.011Z,99925
2015-12-25T15:08:38.714Z,99925
2015-12-25T15:08:50.261Z,99922
2015-12-25T15:09:02.264Z,99922
2015-12-25T15:09:14.311Z,99916
2015-12-25T15:09:25.764Z,99922
2015-12-25T15:09:41.592Z,99922
2015-12-25T15:09:53.108Z,99919
2015-12-25T15:10:04.689Z,99927
2015-12-25T15:10:16.189Z,99927
2015-12-25T15:10:28.205Z,99919
2015-12-25T15:10:39.892Z,99927
2015-12-25T15:10:52.549Z,99925
2015-12-25T15:11:04.614Z,99922
2015-12-25T15:11:16.364Z,99919
2015-12-25T15:11:29.161Z,99927
2015-12-25T15:11:41.567Z,99925
2015-12-25T15:11:53.145Z,99922
2015-12-25T15:12:05.633Z,99919
2015-12-25T15:12:18.976Z,99919
2015-12-25T15:12:30.414Z,99922
2015-12-25T15:12:42.336Z,99925
2015-12-25T15:12:54.320Z,99925
2015-12-25T15:13:05.807Z,99927
2015-12-25T15:13:17.369Z,99927
2015-12-25T15:13:28.900Z,99919
2015-12-25T15:13:45.182Z,99922
2015-12-25T15:13:57.603Z,99919
2015-12-25T15:14:09.169Z,99922
2015-12-25T15:14:20.716Z,99927
2015-12-25T15:14:32.747Z,99933
2015-12-25T15:14:44.247Z,99927
2015-12-25T15:14:55.856Z,99930
2015-12-25T15:15:08.608Z,99927
2015-12-25T15:15:20.687Z,99919
2015-12-25T15:15:32.202Z,99933
2015-12-25T15:15:44.202Z,99930
2015-12-25T15:15:56.280Z,99930
2015-12-25T15:16:07.768Z,99930
2015-12-25T15:52:19.582Z,99950
2015-12-25T15:52:31.098Z,99944
2015-12-25T15:52:43.304Z,99930
2015-12-25T15:52:55.742Z,99936
2015-12-25T15:53:07.398Z,99939
2015-12-25T15:53:19.070Z,99950
2015-12-25T15:53:30.960Z,99956
2015-12-25T15:53:42.479Z,99939
2015-12-25T15:53:54.838Z,99947
2015-12-25T15:54:06.588Z,99944
2015-12-25T15:54:18.338Z,99936
2015-12-25T15:54:29.823Z,99942
2015-12-25T15:54:41.465Z,99947
2015-12-25T15:54:53.872Z,99944
2015-12-25T15:55:06.559Z,99953
2015-12-25T15:55:18.653Z,99942
2015-12-25T15:55:30.184Z,99947
2015-12-25T15:55:41.625Z,99944
2015-12-25T15:55:53.562Z,99944
2015-12-25T15:56:05.906Z,99942
2015-12-25T15:56:18.218Z,99959
2015-12-25T15:56:30.047Z,99950
2015-12-25T15:56:42.158Z,99947
2015-12-25T15:56:53.658Z,99942
2015-12-25T15:57:05.095Z,99950
2015-12-25T15:57:16.595Z,99939
2015-12-25T15:57:28.502Z,99944
2015-12-25T15:57:40.424Z,99950
2015-12-25T15:57:52.770Z,99950
2015-12-25T15:58:04.286Z,99944
2015-12-25T15:58:16.380Z,99944
2015-12-25T15:58:27.833Z,99944
2015-12-25T15:58:39.723Z,99947
2015-12-25T15:58:51.898Z,99950
2015-12-25T15:59:03.695Z,99944
2015-12-25T15:59:15.164Z,99944
2015-12-25T15:59:27.164Z,99950
2015-12-25T15:59:38.648Z,99944
2015-12-25T15:59:50.869Z,99950
2015-12-25T16:00:02.338Z,99956
2015-12-25T16:00:14.260Z,99947
2015-12-25T16:00:26.291Z,99947
2015-12-25T16:00:38.775Z,99950
2015-12-25T16:00:51.606Z,99939
2015-12-25T16:01:03.794Z,99959
2015-12-25T16:01:16.966Z,99947
2015-12-25T16:01:29.153Z,99944
2015-12-25T16:01:40.653Z,99953
2015-12-25T16:01:52.672Z,99964
2015-12-25T16:02:04.188Z,99956
2015-12-25T16:02:15.578Z,99950
2015-12-25T16:02:27.000Z,99953
2015-12-25T16:02:38.547Z,99956
2015-12-25T16:02:49.986Z,99956
2015-12-25T16:03:01.502Z,99956
2015-12-25T16:03:13.721Z,99956
2015-12-25T16:03:25.096Z,99939
2015-12-25T16:03:36.471Z,99947
2015-12-25T16:03:47.880Z,99953
2015-12-25T16:03:59.271Z,99959
2015-12-25T16:04:10.661Z,99961
2015-12-25T16:04:22.021Z,99956
2015-12-25T16:04:33.489Z,99953
2015-12-25T16:04:45.414Z,99959
2015-12-25T16:04:58.399Z,99956
2015-12-25T16:05:10.461Z,99956
2015-12-25T16:05:21.867Z,99950
2015-12-25T16:05:33.227Z,99947
2015-12-25T16:05:45.152Z,99959
2015-12-25T16:05:56.511Z,99950
2015-12-25T16:06:08.011Z,99956
2015-12-25T16:06:19.808Z,99956
2015-12-25T16:06:31.792Z,99959
2015-12-25T16:06:43.589Z,99956
2015-12-25T16:06:55.435Z,99953
2015-12-25T16:07:06.888Z,99956
2015-12-25T16:07:18.388Z,99956
2015-12-25T16:07:29.779Z,99956
2015-12-25T16:07:41.310Z,99956
2015-12-25T16:07:52.735Z,99950
2015-12-25T16:08:04.110Z,99956
2015-12-25T16:08:16.094Z,99959
2015-12-25T16:08:27.516Z,99959
2015-12-25T16:08:39.360Z,99953
2015-12-25T16:08:51.941Z,99956
2015-12-25T16:09:04.003Z,99959
2015-12-25T16:09:15.847Z,99959
2015-12-25T16:09:28.113Z,99961
2015-12-25T16:09:40.003Z,99956
2015-12-25T16:09:52.944Z,99953
2015-12-25T16:10:05.022Z,99956
2015-12-25T16:10:16.538Z,99964
2015-12-25T16:10:28.178Z,99959
2015-12-25T16:10:40.366Z,99961
2015-12-25T16:10:52.352Z,99950
2015-12-25T16:11:03.899Z,99953
2015-12-25T16:11:15.899Z,99961
2015-12-25T16:11:27.680Z,99961
2015-12-25T16:11:40.118Z,99972
2015-12-25T16:11:51.604Z,99959
2015-12-25T16:12:03.807Z,99964
2015-12-25T16:12:16.229Z,99959
2015-12-25T16:12:27.714Z,99953
2015-12-25T16:12:39.604Z,99956
2015-12-25T16:12:51.561Z,99956
2015-12-25T16:13:03.030Z,99959
2015-12-25T16:13:15.061Z,99961
2015-12-25T16:13:27.139Z,99956
2015-12-25T16:13:38.796Z,99961
2015-12-25T16:13:50.970Z,99961
2015-12-25T16:14:02.548Z,99956
2015-12-25T16:14:15.126Z,99959
2015-12-25T16:14:27.454Z,99959
2015-12-25T16:14:40.016Z,99964
2015-12-25T16:14:52.613Z,99956
2015-12-25T16:15:04.613Z,99959
2015-12-25T16:15:17.066Z,99956
2015-12-25T16:15:29.269Z,99961
2015-12-25T16:15:41.223Z,99956
2015-12-25T16:15:52.851Z,99953
2015-12-25T16:16:04.319Z,99947
2015-12-25T16:16:15.726Z,99950
2015-12-25T16:16:27.663Z,99956
2015-12-25T16:16:39.585Z,99959
2015-12-25T16:16:55.509Z,99953
2015-12-25T16:17:06.899Z,99953
2015-12-25T16:17:19.228Z,99959
2015-12-25T16:17:31.446Z,99964
2015-12-25T16:17:42.821Z,99953
2015-12-25T16:17:54.199Z,99956
2015-12-25T16:18:06.215Z,99956
2015-12-25T16:18:17.668Z,99959
2015-12-25T16:18:28.996Z,99956
2015-12-25T16:18:40.434Z,99953
2015-12-25T16:18:52.359Z,99953
2015-12-25T16:19:04.452Z,99956
2015-12-25T16:19:15.827Z,99964
2015-12-25T16:19:27.234Z,99956
2015-12-25T16:19:38.655Z,99953
2015-12-25T16:19:50.062Z,99964
2015-12-25T16:20:01.517Z,99964
2015-12-25T16:20:13.642Z,99947
2015-12-25T16:20:25.048Z,99959
2015-12-25T16:20:36.517Z,99961
2015-12-25T16:20:47.986Z,99959
2015-12-25T16:21:00.224Z,99956
2015-12-25T16:21:11.630Z,99959
2015-12-25T16:21:23.005Z,99956
2015-12-25T16:21:34.365Z,99947
2015-12-25T16:21:46.318Z,99956
2015-12-25T16:21:57.773Z,99956
2015-12-25T16:22:09.757Z,99959
2015-12-25T16:22:21.195Z,99953
2015-12-25T16:22:32.648Z,99959
2015-12-25T16:22:44.148Z,99964
2015-12-25T16:22:55.509Z,99956
2015-12-25T16:23:06.962Z,99961
2015-12-25T16:23:18.400Z,99950
2015-12-25T16:23:30.228Z,99950
2015-12-25T16:23:41.681Z,99953
2015-12-25T16:23:53.137Z,99959
2015-12-25T16:24:04.512Z,99964
2015-12-25T16:24:15.965Z,99961
2015-12-25T16:24:27.418Z,99961
2015-12-25T16:24:38.856Z,99956
2015-12-25T16:24:50.747Z,99961
2015-12-25T16:25:02.984Z,99964
2015-12-25T16:25:14.375Z,99961
2015-12-25T16:25:25.703Z,99967
2015-12-25T16:25:37.078Z,99964
2015-12-25T16:25:48.421Z,99953
2015-12-25T16:26:00.268Z,99964
2015-12-25T16:26:12.424Z,99977
2015-12-25T16:26:23.815Z,99961
2015-12-25T16:26:35.581Z,99961
2015-12-25T16:26:48.159Z,99967
2015-12-25T16:26:59.631Z,99956
2015-12-25T16:27:11.568Z,99969
2015-12-25T16:27:22.927Z,99967
2015-12-25T16:27:34.224Z,99961
2015-12-25T16:27:46.131Z,99967
2015-12-25T16:27:58.086Z,99964
2015-12-25T16:28:09.961Z,99967
2015-12-25T16:28:21.914Z,99961
2015-12-25T16:28:36.945Z,99967
2015-12-25T16:28:48.492Z,99969
2015-12-25T16:29:00.511Z,99959
2015-12-25T16:29:12.964Z,99953
2015-12-25T16:29:28.354Z,99956
2015-12-25T16:29:41.495Z,99964
2015-12-25T16:29:53.419Z,99972
2015-12-25T16:30:04.919Z,99961
2015-12-25T16:30:21.216Z,99964
2015-12-25T16:30:32.716Z,99969
2015-12-25T16:30:44.325Z,99956
2015-12-25T16:30:56.484Z,99959
2015-12-25T16:31:08.016Z,99961
2015-12-25T16:31:19.500Z,99969
2015-12-25T16:31:30.984Z,99961
2015-12-25T16:31:43.062Z,99961
2015-12-25T16:31:55.300Z,99964
2015-12-25T16:32:07.534Z,99961
2015-12-25T16:32:19.019Z,99961
2015-12-25T16:32:31.503Z,99961
2015-12-25T16:32:42.956Z,99959
2015-12-25T16:32:54.912Z,99959
2015-12-25T16:33:06.334Z,99967
2015-12-25T16:33:17.787Z,99967
2015-12-25T16:33:29.678Z,99967
2015-12-25T16:33:41.209Z,99961
2015-12-25T16:33:53.022Z,99961
2015-12-25T16:34:04.493Z,99967
2015-12-25T16:34:16.446Z,99961
2015-12-25T16:34:27.962Z,99959
2015-12-25T16:34:39.556Z,99953
2015-12-25T16:34:51.462Z,99964
2015-12-25T16:35:03.027Z,99972
2015-12-25T16:35:15.214Z,99964
2015-12-25T16:35:26.808Z,99964
2015-12-25T16:35:41.402Z,99964
2015-12-25T16:35:52.917Z,99959
2015-12-25T16:36:04.795Z,99961
2015-12-25T16:36:17.248Z,99969
2015-12-25T16:36:28.764Z,99961
2015-12-25T16:36:40.811Z,99964
2015-12-25T16:36:53.858Z,99961
2015-12-25T16:37:10.173Z,99959
2015-12-25T16:37:21.658Z,99969
2015-12-25T16:37:33.611Z,99964
2015-12-25T16:37:45.189Z,99967
2015-12-25T16:37:56.675Z,99972
2015-12-25T16:38:08.206Z,99961
2015-12-25T16:38:20.160Z,99959
2015-12-25T16:38:31.628Z,99967
2015-12-25T16:38:43.394Z,99964
2015-12-25T16:38:54.722Z,99964
2015-12-25T16:39:06.163Z,99975
2015-12-25T16:39:17.506Z,99964
2015-12-25T16:39:28.834Z,99961
2015-12-25T16:39:40.194Z,99953
2015-12-25T16:39:51.553Z,99967
2015-12-25T16:40:02.961Z,99961
2015-12-25T16:40:14.321Z,99964
2015-12-25T16:40:26.258Z,99964
2015-12-25T16:40:37.915Z,99967
2015-12-25T16:40:49.868Z,99972
2015-12-25T16:41:01.184Z,99964
2015-12-25T16:41:12.512Z,99964
2015-12-25T16:41:23.856Z,99950
2015-12-25T16:41:35.872Z,99953
2015-12-25T16:41:47.215Z,99961
2015-12-25T16:41:58.624Z,99961
2015-12-25T16:42:10.077Z,99959
2015-12-25T16:42:21.405Z,99964
2015-12-25T16:42:32.874Z,99967
2015-12-25T16:42:44.342Z,99953
2015-12-25T16:42:56.264Z,99975
2015-12-25T16:43:07.689Z,99961
2015-12-25T16:43:18.892Z,99964
2015-12-25T16:43:30.252Z,99959
2015-12-25T16:43:41.627Z,99959
2015-12-25T16:43:53.111Z,99961
2015-12-25T16:44:04.535Z,99964
2015-12-25T16:44:15.926Z,99969
2015-12-25T16:44:27.363Z,99964
2015-12-25T16:44:39.238Z,99964
2015-12-25T16:44:50.660Z,99964
2015-12-25T16:45:05.850Z,99969
2015-12-25T16:45:18.304Z,99961
2015-12-25T16:45:29.913Z,99964
2015-12-25T16:45:41.819Z,99959
2015-12-25T16:45:53.350Z,99961
2015-12-25T16:46:06.385Z,99967
2015-12-25T16:46:17.978Z,99964
2015-12-25T16:46:30.244Z,99964
2015-12-25T16:46:42.213Z,99969
2015-12-25T16:46:53.697Z,99964
2015-12-25T16:47:05.247Z,99959
2015-12-25T16:47:16.825Z,99950
2015-12-25T16:47:28.294Z,99950
2015-12-25T16:47:41.560Z,99959
2015-12-25T16:47:53.481Z,99959
2015-12-25T16:48:04.905Z,99959
2015-12-25T16:48:17.546Z,99953
2015-12-25T16:48:29.452Z,99959
2015-12-25T16:48:41.468Z,99950
2015-12-25T16:48:53.546Z,99959
2015-12-25T16:49:05.158Z,99947
2015-12-25T16:49:17.815Z,99961
2015-12-25T16:49:29.455Z,99964
2015-12-25T16:49:41.002Z,99961
2015-12-25T16:49:52.533Z,99953
2015-12-25T16:50:04.099Z,99961
2015-12-25T16:50:15.646Z,99953
2015-12-25T16:50:27.224Z,99953
2015-12-25T16:50:38.786Z,99956
2015-12-25T16:50:50.396Z,99956
2015-12-25T16:51:01.898Z,99959
2015-12-25T16:51:14.476Z,99956
2015-12-25T16:51:26.570Z,99959
2015-12-25T16:51:38.663Z,99953
2015-12-25T16:51:51.148Z,99961
2015-12-25T16:52:02.683Z,99953
2015-12-25T16:52:21.074Z,99950
2015-12-25T16:52:32.574Z,99953
2015-12-25T16:52:44.574Z,99950
2015-12-25T16:52:56.917Z,99956
2015-12-25T16:53:08.935Z,99956
2015-12-25T16:53:20.466Z,99953
2015-12-25T16:53:32.326Z,99967
2015-12-25T16:53:44.544Z,99956
2015-12-25T16:53:56.154Z,99967
2015-12-25T16:54:08.844Z,99956
2015-12-25T16:54:20.766Z,99959
2015-12-25T16:54:32.250Z,99956
2015-12-25T16:54:43.735Z,99961
2015-12-25T16:54:56.235Z,99964
2015-12-25T16:55:08.065Z,99961
2015-12-25T16:55:23.799Z,99944
2015-12-25T16:55:35.221Z,99956
2015-12-25T16:55:48.971Z,99947
2015-12-25T16:56:01.424Z,99956
2015-12-25T16:56:13.646Z,99956
2015-12-25T16:56:25.099Z,99953
2015-12-25T16:56:36.599Z,99950
2015-12-25T16:56:48.834Z,99950
2015-12-25T16:57:00.396Z,99956
2015-12-25T16:57:12.649Z,99959
2015-12-25T16:57:24.524Z,99950
2015-12-25T16:57:36.305Z,99953
2015-12-25T16:57:48.071Z,99953
2015-12-25T16:57:59.540Z,99959
2015-12-25T16:58:14.042Z,99947
2015-12-25T16:58:25.573Z,99950
2015-12-25T16:58:37.042Z,99956
2015-12-25T16:58:49.276Z,99961
2015-12-25T16:59:00.714Z,99964
2015-12-25T16:59:12.607Z,99950
2015-12-25T16:59:24.107Z,99956
2015-12-25T16:59:38.592Z,99950
2015-12-25T16:59:50.076Z,99959
2015-12-25T17:00:01.904Z,99959
2015-12-25T17:00:13.813Z,99959
2015-12-25T17:00:25.345Z,99959
2015-12-25T17:00:36.845Z,99964
2015-12-25T17:00:48.220Z,99956
2015-12-25T17:00:59.766Z,99959
2015-12-25T17:01:11.301Z,99956
2015-12-25T17:01:22.832Z,99956
2015-12-25T17:01:34.723Z,99953
2015-12-25T17:01:46.191Z,99964
2015-12-25T17:01:58.676Z,99967
2015-12-25T17:02:10.584Z,99964
2015-12-25T17:02:23.396Z,99964
2015-12-25T17:02:35.193Z,99972
2015-12-25T17:02:47.287Z,99975
2015-12-25T17:02:59.756Z,99964
2015-12-25T17:03:12.023Z,99967
2015-12-25T17:03:23.945Z,99959
2015-12-25T17:03:36.008Z,99964
2015-12-25T17:03:47.930Z,99967
2015-12-25T17:03:59.461Z,99967
2015-12-25T17:04:11.370Z,99972
2015-12-25T17:04:23.526Z,99975
2015-12-25T17:04:35.058Z,99975
2015-12-25T17:04:47.151Z,99961
2015-12-25T17:04:58.620Z,99961
2015-12-25T17:05:10.108Z,99961
2015-12-25T17:05:21.514Z,99969
2015-12-25T17:05:32.951Z,99967
2015-12-25T17:05:44.498Z,99964
2015-12-25T17:05:56.029Z,99972
2015-12-25T17:06:07.970Z,99975
2015-12-25T17:06:19.423Z,99972
2015-12-25T17:06:31.876Z,99964
2015-12-25T17:06:44.267Z,99964
2015-12-25T17:06:56.189Z,99964
2015-12-25T17:07:07.567Z,99969
2015-12-25T17:07:18.989Z,99980
2015-12-25T17:07:30.739Z,99967
2015-12-25T17:07:42.223Z,99972
2015-12-25T17:07:53.723Z,99972
2015-12-25T17:08:05.239Z,99977
2015-12-25T17:08:16.725Z,99969
2015-12-25T17:08:28.616Z,99975
2015-12-25T17:08:40.100Z,99977
2015-12-25T17:08:51.881Z,99977
2015-12-25T17:09:03.834Z,99977
2015-12-25T17:09:15.759Z,99972
2015-12-25T17:09:27.181Z,99969
2015-12-25T17:09:38.587Z,99977
2015-12-25T17:09:50.353Z,99972
2015-12-25T17:10:01.853Z,99967
2015-12-25T17:10:13.417Z,99964
2015-12-25T17:10:25.558Z,99975
2015-12-25T17:10:41.699Z,99977
2015-12-25T17:10:53.683Z,99977
2015-12-25T17:11:05.589Z,99977
2015-12-25T17:11:17.108Z,99975
2015-12-25T17:11:28.592Z,99972
2015-12-25T17:11:40.061Z,99972
2015-12-25T17:11:51.545Z,99972
2015-12-25T17:12:03.077Z,99977
2015-12-25T17:12:14.611Z,99975
2015-12-25T17:12:26.127Z,99983
2015-12-25T17:12:38.158Z,99980
2015-12-25T17:12:49.689Z,99977
2015-12-25T17:13:01.252Z,99980
2015-12-25T17:13:12.801Z,99986
2015-12-25T17:13:24.208Z,99975
2015-12-25T17:13:36.051Z,99977
2015-12-25T17:13:47.520Z,99967
2015-12-25T17:13:59.676Z,99977
2015-12-25T17:14:15.289Z,99977
2015-12-25T17:14:27.320Z,99986
2015-12-25T17:14:38.758Z,99972
2015-12-25T17:14:50.289Z,99986
2015-12-25T17:15:01.820Z,99972
2015-12-25T17:15:13.619Z,99983
2015-12-25T17:15:25.166Z,99977
2015-12-25T17:15:36.775Z,99983
2015-12-25T17:15:48.244Z,99986
2015-12-25T17:15:59.760Z,99983
2015-12-25T17:16:11.138Z,99977
2015-12-25T17:16:22.544Z,99989
2015-12-25T17:16:34.138Z,99977
2015-12-25T17:16:45.731Z,99983
2015-12-25T17:16:57.341Z,99991
2015-12-25T17:17:08.856Z,99983
2015-12-25T17:17:20.437Z,99980
2015-12-25T17:17:32.422Z,99991
2015-12-25T17:17:43.984Z,99983
2015-12-25T17:17:56.703Z,99980
2015-12-25T17:18:08.687Z,99989
2015-12-25T17:18:20.565Z,99975
2015-12-25T17:18:32.644Z,99980
2015-12-25T17:18:44.253Z,99983